• Join FlightAware (Why Join?)
  • Login
  • US Flag 
02:56PM EDT


 

Airport Tracker/Info


-or-


 

Live Flight TrackerFlight Track Log ✈ N546QS ✈ 10-Jun-2013 ✈ KSAV - KMDW

Flight Track Log - Related Links

Times and Time Zones

All times are in EDT time to prevent confusion due to time zone crossing. See the N546QS flight status page for this flight to view local times or setup timezone preferences in your user account.

Time Position Orientation Groundspeed Altitude Reporting Facility
EDT Latitude Longitude Course Direction KTS MPH feet Rate Location/Type
11:35AM 32.2044 -81.3017 333° Northwest 275 316 7,400  Level Jacksonville Center
11:36AM 32.2719 -81.3372 336° Northwest 283 326 10,500 3,540 Climbing Jacksonville Center
11:37AM 32.3622 -81.3897 334° Northwest 307 353 14,500 3,480 Climbing Jacksonville Center
11:38AM 32.4422 -81.4353 334° Northwest 339 390 17,500 3,240 Climbing Jacksonville Center
11:39AM 32.5408 -81.4928 334° Northwest 350 403 21,000 3,060 Climbing Jacksonville Center
11:40AM 32.5484 -81.4515 333° Northwest  Level Estimated
11:40AM 32.6269 -81.5433 334° Northwest 370 426 23,700  Level Jacksonville Center
11:41AM 32.6535 -81.5142 333° Northwest  Level Estimated
11:41AM 32.7256 -81.5961 336° Northwest 381 438 26,300  Level Jacksonville Center
11:44AM 32.9819 -81.7631 331° Northwest 429 494 31,800 1,920 Climbing Atlanta Center
11:45AM 33.0819 -81.8547 322° Northwest 441 507 32,900 960 Climbing Atlanta Center
11:46AM 33.1714 -81.9617 315° West 447 514 33,800 900 Climbing Atlanta Center
11:47AM 33.2567 -82.0689 314° West 447 514 34,800 960 Climbing Atlanta Center
11:48AM 33.3500 -82.1711 318° Northwest 452 520 35,800 960 Climbing Atlanta Center
11:49AM 33.4617 -82.2458 331° Northwest 452 520 36,800 780 Climbing Atlanta Center
11:50AM 33.5714 -82.3233 330° Northwest 461 531 37,400 720 Climbing Atlanta Center
11:51AM 33.6831 -82.3961 332° Northwest 461 531 38,300 780 Climbing Atlanta Center
11:52AM 33.7800 -82.4642 330° Northwest 461 531 39,000 720 Climbing Atlanta Center
11:53AM 33.8936 -82.5397 331° Northwest 461 531 39,800 480 Climbing Atlanta Center
11:54AM 34.0031 -82.6156 330° Northwest 456 525 40,000 60 Climbing Atlanta Center
11:55AM 34.1208 -82.6914 332° Northwest 462 532 40,000  Level Atlanta Center
11:56AM 34.2322 -82.7675 331° Northwest 470 541 40,000  Level Atlanta Center
11:57AM 34.3436 -82.8436 331° Northwest 465 535 40,000  Level Atlanta Center
11:58AM 34.4569 -82.9228 330° Northwest 465 535 40,000  Level Atlanta Center
11:59AM 34.5683 -82.9969 331° Northwest 458 527 40,000  Level Atlanta Center
12:00PM 34.6983 -83.0889 330° Northwest 470 541 40,000  Level Atlanta Center
12:01PM 34.8158 -83.1683 331° Northwest 470 541 40,000  Level Atlanta Center
12:02PM 34.9167 -83.2383 330° Northwest 467 537 40,000  Level Atlanta Center
12:03PM 35.0319 -83.3258 328° Northwest 467 537 40,000  Level Atlanta Center
12:04PM 35.1469 -83.4089 329° Northwest 474 545 40,000  Level Atlanta Center
12:05PM 35.2622 -83.4867 331° Northwest 474 545 40,000  Level Atlanta Center
12:06PM 35.3731 -83.5650 330° Northwest 474 545 40,000  Level Atlanta Center
12:07PM 35.4881 -83.6433 331° Northwest 469 540 40,000  Level Atlanta Center
12:08PM 35.6011 -83.7244 330° Northwest 469 540 40,000  Level Atlanta Center
12:09PM 35.7139 -83.8061 330° Northwest 469 540 40,000  Level Atlanta Center
12:10PM 35.8286 -83.8875 330° Northwest 469 540 40,000  Level Atlanta Center
12:11PM 35.9414 -83.9694 330° Northwest 469 540 40,000  Level Atlanta Center
12:13PM 36.1667 -84.1144 333° Northwest 473 544 40,000  Level Indianapolis Center
12:14PM 36.2939 -84.1656 342° North 481 554 40,000  Level Indianapolis Center
12:15PM 36.4217 -84.2192 341° North 484 557 40,000  Level Indianapolis Center
12:16PM 36.5658 -84.2806 341° North 489 563 40,000  Level Indianapolis Center
12:17PM 36.6964 -84.3358 341° North 492 566 40,000  Level Indianapolis Center
12:18PM 36.8294 -84.3925 341° North 498 573 40,000  Level Indianapolis Center
12:19PM 36.9650 -84.4497 341° North 505 581 40,000  Level Indianapolis Center
12:20PM 37.0989 -84.5078 341° North 507 583 40,000  Level Indianapolis Center
12:21PM 37.2514 -84.5744 341° North 499 574 40,000  Level Indianapolis Center
12:22PM 37.3825 -84.6308 341° North 496 571 40,000  Level Indianapolis Center
12:23PM 37.5147 -84.6878 341° North 498 573 40,000  Level Indianapolis Center
12:24PM 37.6447 -84.7453 341° North 497 572 40,000 -360 Level Indianapolis Center
12:25PM 37.7733 -84.8011 341° North 488 562 39,300 -1,260 Descending Indianapolis Center
12:26PM 37.9047 -84.8600 341° North 495 570 37,400 -1,920 Descending Indianapolis Center
12:27PM 38.0403 -84.9167 342° North 507 583 35,400 -1,680 Descending Indianapolis Center
12:28PM 38.1744 -84.9758 341° North 510 587 34,000 -720 Descending Indianapolis Center
12:29PM 38.3344 -85.0433 342° North 516 594 34,000  Level Indianapolis Center
12:30PM 38.4683 -85.1067 340° North 515 593 34,000  Level Indianapolis Center
12:31PM 38.6025 -85.1675 340° North 513 590 34,000  Level Indianapolis Center
12:32PM 38.7300 -85.2253 341° North 522 601 34,000 -420 Level Indianapolis Center
12:33PM 38.8633 -85.2867 340° North 513 590 33,200 -840 Descending Indianapolis Center
12:34PM 38.9958 -85.3467 341° North 509 586 32,400 -840 Descending Indianapolis Center
12:35PM 39.1617 -85.4231 340° North 525 604 31,500 -840 Descending Indianapolis Center
12:36PM 39.3014 -85.4861 341° North 533 613 30,700 -780 Descending Indianapolis Center
12:37PM 39.4381 -85.5481 341° North 526 605 30,000 -540 Descending Indianapolis Center
12:38PM 39.5717 -85.6100 340° North 517 595 29,600 -1,020 Descending Indianapolis Center
12:39PM 39.7039 -85.6706 341° North 511 588 28,000 -1,560 Descending Indianapolis Center
12:40PM 39.8297 -85.7289 340° North 491 565 26,500 -1,560 Descending Indianapolis Center
12:41PM 39.9731 -85.7958 340° North 465 535 24,900 -1,260 Descending Indianapolis Center
12:43PM 40.0917 -85.8511 340° North 460 529 24,000 -480 Descending Indianapolis Center
12:44PM 40.2058 -85.9047 340° North 446 513 24,000 -120 Level Indianapolis Center
12:44PM 40.2289 -85.9139 343° North 443 510 23,900 -780 Descending Chicago Center
12:45PM 40.3436 -85.9689 340° North 442 509 23,000 -480 Descending Chicago Center
12:46PM 40.4789 -86.0322 340° North 435 501 23,000 -240 Level Chicago Center
12:47PM 40.5992 -86.0550 352° North 443 510 22,600 -1,320 Descending Chicago Center
12:48PM 40.7119 -86.0628 357° North 442 509 20,300 -2,640 Descending Chicago Center
12:49PM 40.8200 -86.1681 324° Northwest 409 471 17,100 -2,640 Descending Chicago Center
12:50PM 40.9036 -86.2633 319° Northwest 397 457 14,900 -2,220 Descending Chicago Center
12:51PM 40.9861 -86.3589 319° Northwest 394 453 12,600 -1,920 Descending Chicago Center
12:52PM 41.0592 -86.4544 315° West 374 430 11,000 -1,080 Descending Chicago Center
12:53PM 41.1075 -86.5736 298° West 366 421 10,400 -540 Descending Chicago Center
12:54PM 41.1692 -86.6794 308° West 362 417 10,000 -240 Descending Chicago Center
12:55PM 41.2497 -86.7883 315° West 362 417 10,000 -420 Level Chicago Center
12:56PM 41.3164 -86.8822 313° West 355 409 9,200 -780 Descending Chicago Center
12:57PM 41.3681 -86.9536 314° West 275 316 8,400 -900 Descending Chicago Center
12:58PM 41.4314 -87.0408 314° West 275 316 7,400 -1,020 Descending Chicago Center
12:59PM 41.4772 -87.1203 308° West 274 315 6,300 -780 Descending Chicago Center
01:00PM 41.5069 -87.2022 296° West 255 293 5,800 -360 Descending Chicago Center
01:01PM 41.5403 -87.2825 299° West 251 289 5,600 -540 Descending Chicago Center
01:02PM 41.5725 -87.3606 299° West 245 282 4,700 -780 Descending Chicago Center
01:03PM 41.6100 -87.4533 298° West 241 277 4,100 -360 Descending Chicago Center
01:05PM 41.6419 -87.5300 299° West 240 276 4,000 -240 Descending Chicago Center
01:06PM 41.6719 -87.5986 300° West 231 266 3,700 -660 Descending Chicago Center
01:07PM 41.7078 -87.6453 316° Northwest 203 234 2,700 -1,020 Descending Chicago Center
01:08PM 41.7456 -87.6975 314° West 179 206 1,700 -780 Descending Chicago Center
01:09PM 41.7683 -87.7294 314° West 148 170 1,100 -420 Descending Chicago Center
01:10PM 41.7903 -87.7606 313° West 143 165 900 -240 Descending Chicago Center